Time;durP1;ratioP1;P1;durP2;ratioP2;P2;SDS_P1;SDS_P2;PMS_P1;PMS_P2;Temp;Humidity;BMP_temperature;BMP_pressure;BME280_temperature;BME280_humidity;BME280_pressure;Samples;Min_cycle;Max_cycle;Signal;HPM_P1;HPM_P2
2023/04/20 00:00:49;;;;;;;6.72;6.05;;;;;;;9.36;86.44;62963.41;5062705;28;20198;-76
2023/04/20 00:03:17;;;;;;;7.18;6.47;;;;;;;9.41;87.05;62968.59;5047202;28;20553;-77
2023/04/20 00:05:44;;;;;;;6.95;6.35;;;;;;;9.47;86.24;62969.19;5046493;28;20197;-78
2023/04/20 00:08:11;;;;;;;7.82;6.82;;;;;;;9.55;86.06;62980.53;5048618;28;20225;-77
2023/04/20 00:10:38;;;;;;;7.25;6.55;;;;;;;9.49;86.60;62974.31;5062507;28;20194;-77
2023/04/20 00:13:05;;;;;;;9.50;6.47;;;;;;;9.51;86.24;62975.88;5065104;28;20370;-77
2023/04/20 00:15:33;;;;;;;9.23;7.13;;;;;;;9.47;86.13;62974.28;5065153;28;20295;-76
2023/04/20 00:18:00;;;;;;;7.75;6.93;;;;;;;9.46;86.91;62975.78;5064876;28;20233;-76
2023/04/20 00:20:28;;;;;;;7.70;6.28;;;;;;;9.49;86.59;62976.34;5063728;28;20201;-77
2023/04/20 00:22:55;;;;;;;7.55;6.85;;;;;;;9.47;87.34;62974.81;5065607;28;20538;-77
2023/04/20 00:25:22;;;;;;;9.93;6.25;;;;;;;9.36;88.23;62960.88;5064070;28;20231;-75
2023/04/20 00:27:49;;;;;;;9.23;6.60;;;;;;;9.21;89.23;62945.88;5062278;28;20267;-76
2023/04/20 00:30:15;;;;;;;10.13;6.22;;;;;;;9.22;89.70;62946.94;5061675;28;20323;-78
2023/04/20 00:32:44;;;;;;;7.68;6.97;;;;;;;9.26;88.15;62953.59;5065515;28;20233;-79
2023/04/20 00:35:11;;;;;;;9.85;6.40;;;;;;;9.32;87.72;62962.34;5066129;28;20241;-78
2023/04/20 00:37:38;;;;;;;7.57;6.97;;;;;;;9.33;88.02;62957.78;5063085;28;20213;-79
2023/04/20 00:40:06;;;;;;;7.05;6.40;;;;;;;9.25;88.45;62946.97;5043786;28;20206;-76
2023/04/20 00:42:33;;;;;;;7.03;6.40;;;;;;;9.31;88.17;62955.72;5044207;28;20217;-79
2023/04/20 00:45:00;;;;;;;6.75;6.15;;;;;;;9.34;88.07;62954.25;5051970;28;20197;-77
2023/04/20 00:47:28;;;;;;;7.18;6.43;;;;;;;9.16;89.57;62942.75;5060931;28;20225;-76
2023/04/20 00:49:56;;;;;;;7.75;6.60;;;;;;;9.11;90.57;62935.53;5065458;28;20200;-77
2023/04/20 00:52:23;;;;;;;10.18;6.18;;;;;;;9.09;90.94;62938.06;5064349;28;20225;-76
2023/04/20 00:54:50;;;;;;;5.82;5.38;;;;;;;9.06;90.48;62930.38;5061735;28;20256;-75
2023/04/20 00:57:21;;;;;;;6.50;5.97;;;;;;;9.10;91.38;62934.53;5049556;28;20233;-77
2023/04/20 00:59:48;;;;;;;6.93;6.15;;;;;;;9.10;91.27;62939.59;5043892;28;20217;-74
2023/04/20 01:02:15;;;;;;;6.60;6.00;;;;;;;9.19;91.35;62946.38;5045046;28;20244;-77
2023/04/20 01:04:42;;;;;;;6.22;5.63;;;;;;;9.04;92.64;62928.31;5063550;28;20197;-76
2023/04/20 01:07:10;;;;;;;7.70;6.80;;;;;;;8.98;94.17;62924.66;5044337;28;20242;-77
2023/04/20 01:09:38;;;;;;;7.25;6.65;;;;;;;9.03;94.59;62926.75;5044000;28;20241;-77
2023/04/20 01:12:06;;;;;;;8.88;6.30;;;;;;;8.98;96.13;62924.13;5051854;28;20420;-77
2023/04/20 01:14:32;;;;;;;7.78;6.45;;;;;;;9.00;96.64;62926.22;5062246;28;20236;-75
2023/04/20 01:16:59;;;;;;;10.27;5.45;;;;;;;8.90;98.21;62915.88;5063475;28;20215;-75
2023/04/20 01:19:26;;;;;;;7.20;6.45;;;;;;;8.96;98.33;62922.59;5064872;28;20206;-77
2023/04/20 01:21:53;;;;;;;8.05;7.10;;;;;;;8.80;100.00;62910.63;5062897;28;20553;-75
2023/04/20 01:24:22;;;;;;;9.02;7.18;;;;;;;8.78;100.00;62903.47;5066445;28;20228;-76
2023/04/20 01:26:49;;;;;;;10.25;7.68;;;;;;;8.83;100.00;62909.16;5068316;28;20221;-76
2023/04/20 01:29:16;;;;;;;7.88;7.18;;;;;;;8.90;100.00;62913.34;5067240;28;20217;-78
2023/04/20 01:31:42;;;;;;;10.13;7.35;;;;;;;8.77;100.00;62904.97;5068096;28;20231;-76
2023/04/20 01:34:09;;;;;;;8.05;7.35;;;;;;;8.76;100.00;62899.38;5047319;28;20202;-77
2023/04/20 01:36:36;;;;;;;8.88;7.13;;;;;;;8.74;100.00;62897.31;5047555;28;20204;-76
2023/04/20 01:39:03;;;;;;;9.80;7.85;;;;;;;8.71;100.00;62899.31;5055919;28;20216;-77
2023/04/20 01:41:31;;;;;;;8.07;7.38;;;;;;;8.78;100.00;62901.47;5065713;28;20431;-76
2023/04/20 01:43:58;;;;;;;10.38;7.50;;;;;;;8.76;100.00;62899.38;5068237;28;20251;-77
2023/04/20 01:46:25;;;;;;;9.38;8.48;;;;;;;8.87;100.00;62910.75;5067812;28;20204;-76
2023/04/20 01:48:52;;;;;;;9.75;7.45;;;;;;;8.93;100.00;62922.03;5066679;28;20202;-77
2023/04/20 01:51:19;;;;;;;9.05;8.25;;;;;;;8.96;100.00;62922.59;5053510;28;20264;-78
2023/04/20 01:53:46;;;;;;;9.07;8.02;;;;;;;8.90;100.00;62916.41;5061327;28;20268;-78
2023/04/20 01:56:13;;;;;;;8.13;7.35;;;;;;;8.84;100.00;62907.13;5066877;28;20534;-75
2023/04/20 01:58:41;;;;;;;8.48;7.53;;;;;;;8.77;100.00;62902.44;5068159;28;20225;-77
2023/04/20 02:01:08;;;;;;;9.32;8.10;;;;;;;8.87;100.00;62913.28;5046750;28;20323;-77
2023/04/20 02:03:35;;;;;;;8.20;7.35;;;;;;;8.96;100.00;62922.06;5047028;28;20284;-77
2023/04/20 02:06:02;;;;;;;7.93;7.13;;;;;;;8.89;100.00;62917.38;5053883;28;20201;-76
2023/04/20 02:08:29;;;;;;;9.68;7.72;;;;;;;8.80;100.00;62906.03;5063351;28;20240;-77
2023/04/20 02:10:56;;;;;;;9.15;8.25;;;;;;;8.82;100.00;62905.56;5046659;28;20197;-75
2023/04/20 02:13:22;;;;;;;9.27;8.45;;;;;;;8.70;100.00;62898.25;5047735;28;20273;-75
2023/04/20 02:15:51;;;;;;;8.57;7.78;;;;;;;8.54;100.00;62876.66;5058392;28;20452;-76
2023/04/20 02:18:18;;;;;;;8.57;7.78;;;;;;;8.46;100.00;62867.88;5054774;28;20236;-77
2023/04/20 02:20:45;;;;;;;8.98;8.10;;;;;;;8.46;100.00;62868.38;5046523;28;20198;-76
2023/04/20 02:23:12;;;;;;;8.55;7.78;;;;;;;8.46;100.00;62867.88;5045758;28;20217;-78
2023/04/20 02:25:40;;;;;;;7.95;7.32;;;;;;;8.56;100.00;62876.19;5049827;28;20218;-79
2023/04/20 02:28:06;;;;;;;9.18;8.10;;;;;;;8.68;100.00;62888.56;5049855;28;20229;-77
2023/04/20 02:30:33;;;;;;;8.77;7.95;;;;;;;8.70;100.00;62892.66;5047264;28;20201;-77
2023/04/20 02:33:02;;;;;;;8.57;7.70;;;;;;;8.79;100.00;62905.03;5052704;28;20233;-78
2023/04/20 02:35:29;;;;;;;9.32;7.90;;;;;;;8.81;100.00;62906.56;5065535;28;20589;-76
2023/04/20 02:37:55;;;;;;;8.70;7.82;;;;;;;8.83;100.00;62906.09;5054215;28;20454;-76
2023/04/20 02:40:22;;;;;;;9.27;8.30;;;;;;;8.74;100.00;62894.78;5045998;28;20515;-76
2023/04/20 02:42:49;;;;;;;9.73;8.40;;;;;;;8.64;100.00;62886.47;5058066;28;20225;-74
2023/04/20 02:45:16;;;;;;;9.57;8.55;;;;;;;8.69;100.00;62894.16;5065634;28;20204;-77
2023/04/20 02:47:43;;;;;;;9.55;8.15;;;;;;;8.78;100.00;62900.94;5058582;28;20225;-77
2023/04/20 02:50:12;;;;;;;8.73;7.72;;;;;;;8.87;100.00;62915.81;5064960;28;20205;-76
2023/04/20 02:52:39;;;;;;;8.88;7.78;;;;;;;8.87;100.00;62910.25;5066119;28;20282;-77
2023/04/20 02:55:06;;;;;;;9.20;8.27;;;;;;;8.89;100.00;62917.38;5064018;28;20553;-78
2023/04/20 02:57:33;;;;;;;9.43;8.48;;;;;;;8.80;100.00;62903.50;5050825;28;20221;-76
2023/04/20 03:00:01;;;;;;;9.45;8.27;;;;;;;8.62;100.00;62881.84;5050275;28;20207;-77
2023/04/20 03:02:28;;;;;;;7.97;7.28;;;;;;;8.71;100.00;62896.75;5066161;28;20263;-77
2023/04/20 03:04:54;;;;;;;10.15;7.72;;;;;;;8.70;100.00;62892.66;5064954;28;20201;-75
2023/04/20 03:07:23;;;;;;;7.18;6.55;;;;;;;8.62;100.00;62882.38;5063002;28;20263;-77
2023/04/20 03:09:50;;;;;;;7.10;6.50;;;;;;;8.52;100.00;62874.59;5063691;28;20251;-76
2023/04/20 03:12:17;;;;;;;10.85;7.80;;;;;;;8.58;100.00;62880.78;5065111;28;20242;-79
2023/04/20 03:14:44;;;;;;;9.20;7.65;;;;;;;8.70;100.00;62887.59;5064883;28;20197;-77
2023/04/20 03:17:11;;;;;;;8.32;7.50;;;;;;;8.68;100.00;62891.09;5067149;28;20225;-77
2023/04/20 03:19:38;;;;;;;8.70;7.80;;;;;;;8.64;100.00;62886.47;5063638;28;20206;-77
2023/04/20 03:22:05;;;;;;;8.25;7.45;;;;;;;8.59;100.00;62881.31;5065507;28;20560;-77
2023/04/20 03:24:34;;;;;;;9.52;7.72;;;;;;;8.53;100.00;62875.63;5053459;28;20214;-77
2023/04/20 03:27:01;;;;;;;8.63;7.60;;;;;;;8.57;100.00;62881.78;5049460;28;20474;-76
2023/04/20 03:29:28;;;;;;;9.40;8.50;;;;;;;8.60;100.00;62882.31;5064457;28;20215;-75
2023/04/20 03:31:54;;;;;;;8.82;7.82;;;;;;;8.65;100.00;62890.56;5066589;28;20251;-77
2023/04/20 03:34:21;;;;;;;10.57;8.73;;;;;;;8.72;100.00;62894.72;5045858;28;20206;-76
2023/04/20 03:36:48;;;;;;;8.27;7.57;;;;;;;8.72;100.00;62900.31;5044767;28;20229;-76
2023/04/20 03:39:15;;;;;;;9.38;8.13;;;;;;;8.72;100.00;62897.25;5045875;28;20507;-76
2023/04/20 03:41:43;;;;;;;8.65;7.85;;;;;;;8.74;100.00;62899.34;5057851;28;20193;-77
2023/04/20 03:44:10;;;;;;;7.90;7.20;;;;;;;8.83;98.42;62909.16;5066165;28;20202;-77
2023/04/20 03:46:37;;;;;;;10.65;7.28;;;;;;;8.89;96.21;62917.88;5064603;28;20223;-77
2023/04/20 03:49:04;;;;;;;12.77;6.20;;;;;;;9.01;94.09;62929.78;5065735;28;20212;-76
2023/04/20 03:51:31;;;;;;;8.95;7.47;;;;;;;9.06;94.11;62929.88;5066715;28;20201;-77
2023/04/20 03:53:58;;;;;;;7.65;6.90;;;;;;;9.05;92.55;62931.91;5064020;28;20495;-77
2023/04/20 03:56:26;;;;;;;7.72;7.03;;;;;;;9.14;91.45;62938.13;5066629;28;20259;-78
2023/04/20 03:58:54;;;;;;;8.20;7.10;;;;;;;9.05;91.31;62926.28;5061599;28;20198;-77
2023/04/20 04:01:21;;;;;;;8.27;7.47;;;;;;;8.97;92.83;62923.63;5045418;28;20225;-77
2023/04/20 04:03:48;;;;;;;9.05;7.47;;;;;;;9.13;92.46;62939.63;5052759;28;20287;-77
2023/04/20 04:06:15;;;;;;;8.88;8.07;;;;;;;9.19;91.75;62941.28;5066482;28;20227;-78
2023/04/20 04:08:42;;;;;;;12.52;8.50;;;;;;;9.31;91.93;62958.25;5056575;28;20450;-78
2023/04/20 04:11:09;;;;;;;9.85;8.85;;;;;;;9.33;92.50;62955.75;5046899;28;20225;-78
2023/04/20 04:13:36;;;;;;;12.95;9.23;;;;;;;9.32;93.63;62956.75;5073719;28;20224;-78
2023/04/20 04:16:05;;;;;;;9.80;8.82;;;;;;;9.31;94.59;62955.72;5086252;28;20283;-78
2023/04/20 04:18:32;;;;;;;14.65;9.63;;;;;;;9.33;94.77;62960.31;5067972;28;20225;-78
2023/04/20 04:20:59;;;;;;;12.50;10.63;;;;;;;9.38;95.76;62960.41;5064722;28;20220;-78
2023/04/20 04:23:26;;;;;;;11.13;10.02;;;;;;;9.31;96.71;62958.25;5066048;28;20232;-78
2023/04/20 04:25:53;;;;;;;14.38;10.63;;;;;;;9.35;96.49;62960.34;5064763;28;20229;-79
2023/04/20 04:28:20;;;;;;;13.10;10.13;;;;;;;9.28;96.72;62960.75;5065575;28;20217;-78
2023/04/20 04:30:47;;;;;;;14.48;10.88;;;;;;;9.27;97.34;62952.09;5065129;28;20198;-77
2023/04/20 04:33:17;;;;;;;13.40;10.88;;;;;;;9.31;96.89;62955.72;5065187;28;20237;-77
2023/04/20 04:35:44;;;;;;;13.05;11.05;;;;;;;9.30;96.75;62957.22;5058523;28;20229;-78
2023/04/20 04:38:12;;;;;;;10.50;9.50;;;;;;;9.28;96.87;62955.16;5045769;28;20218;-78
2023/04/20 04:40:38;;;;;;;14.35;10.38;;;;;;;9.29;97.62;62954.16;5063208;28;20242;-78
2023/04/20 04:43:06;;;;;;;14.68;11.05;;;;;;;9.28;97.80;62952.63;5063182;28;20239;-79
2023/04/20 04:45:33;;;;;;;16.42;11.73;;;;;;;9.31;97.60;62955.72;5064862;28;20260;-76
2023/04/20 04:48:00;;;;;;;17.65;11.38;;;;;;;9.30;97.78;62952.16;5065481;28;20235;-78
2023/04/20 04:50:29;;;;;;;14.50;10.98;;;;;;;9.31;97.79;62963.34;5058346;28;20201;-79
2023/04/20 04:52:55;;;;;;;11.52;10.32;;;;;;;9.27;98.27;62952.09;5065271;28;20259;-77
2023/04/20 04:55:22;;;;;;;15.35;10.82;;;;;;;9.32;97.71;62957.25;5068218;28;20308;-78
2023/04/20 04:57:49;;;;;;;13.32;10.57;;;;;;;9.34;97.48;62959.31;5069604;28;20256;-78
2023/04/20 05:00:17;;;;;;;15.70;11.15;;;;;;;9.27;98.77;62949.56;5068283;28;20478;-79
2023/04/20 05:02:44;;;;;;;13.85;11.05;;;;;;;9.34;98.28;62961.34;5066446;28;20247;-77
2023/04/20 05:05:11;;;;;;;16.40;10.25;;;;;;;9.30;98.86;62957.22;5070671;28;20201;-78
2023/04/20 05:07:39;;;;;;;14.25;11.25;;;;;;;9.41;98.63;62962.97;5068327;28;20225;-78
2023/04/20 05:10:08;;;;;;;15.27;11.45;;;;;;;9.46;97.28;62971.22;5063999;28;20240;-78
2023/04/20 05:12:35;;;;;;;16.30;11.48;;;;;;;9.52;96.66;62987.06;5060438;28;20240;-79
2023/04/20 05:15:01;;;;;;;15.95;11.18;;;;;;;9.56;95.90;62984.09;5068583;28;20330;-78
2023/04/20 05:17:34;;;;;;;13.75;11.10;;;;;;;9.56;96.68;62986.13;5081227;28;20220;-78
2023/04/20 05:20:05;;;;;;;14.40;10.77;;;;;;;9.48;95.84;62972.75;5075380;28;20403;-78
2023/04/20 05:22:31;;;;;;;14.20;11.02;;;;;;;9.51;96.76;62981.47;5070030;28;20522;-78
2023/04/20 05:25:00;;;;;;;13.18;9.80;;;;;;;9.48;96.98;62975.31;5067944;28;20209;-77
2023/04/20 05:27:26;;;;;;;16.90;11.13;;;;;;;9.44;97.41;62969.13;5067818;28;20229;-78
2023/04/20 05:29:53;;;;;;;14.90;10.80;;;;;;;9.53;97.20;62977.94;5049787;28;20198;-78
2023/04/20 05:32:20;;;;;;;15.13;11.65;;;;;;;9.48;97.26;62970.22;5050806;28;20217;-79
2023/04/20 05:34:47;;;;;;;17.80;12.48;;;;;;;9.53;98.17;62981.00;5054442;28;20261;-77
2023/04/20 05:37:15;;;;;;;16.25;11.82;;;;;;;9.63;96.93;62990.84;5063432;28;20304;-78
2023/04/20 05:39:42;;;;;;;14.52;11.75;;;;;;;9.58;97.16;62990.75;5048074;28;20257;-76
2023/04/20 05:42:10;;;;;;;11.73;10.48;;;;;;;9.61;97.14;62988.75;5047993;28;20233;-77
2023/04/20 05:44:38;;;;;;;13.00;11.15;;;;;;;9.68;97.45;62993.97;5050962;28;20213;-78
2023/04/20 05:47:07;;;;;;;16.42;11.95;;;;;;;9.75;96.79;62998.16;5051580;28;20222;-79
2023/04/20 05:49:34;;;;;;;14.68;11.30;;;;;;;9.76;96.52;63004.78;5069614;28;20198;-76
2023/04/20 05:52:02;;;;;;;13.48;10.10;;;;;;;9.85;96.21;63011.56;5069178;28;20221;-78
2023/04/20 05:54:29;;;;;;;14.00;11.00;;;;;;;9.74;97.17;63002.72;5066848;28;20473;-77
2023/04/20 05:56:56;;;;;;;12.30;9.70;;;;;;;9.81;96.89;63011.97;5063585;28;20319;-79
2023/04/20 05:59:25;;;;;;;13.02;10.05;;;;;;;9.75;96.56;63000.69;5069291;28;20260;-78
2023/04/20 06:01:52;;;;;;;15.00;10.77;;;;;;;9.75;97.73;63001.19;5067557;28;20537;-78
2023/04/20 06:04:19;;;;;;;12.88;10.27;;;;;;;9.65;97.06;62992.88;5066313;28;20194;-77
2023/04/20 06:06:46;;;;;;;12.38;10.35;;;;;;;9.68;97.25;62996.00;5048731;28;20237;-78
2023/04/20 06:09:13;;;;;;;12.20;10.07;;;;;;;9.71;96.91;62997.06;5050788;28;20202;-80
2023/04/20 06:11:40;;;;;;;11.75;9.85;;;;;;;9.66;98.12;62993.94;5050431;28;20559;-76
2023/04/20 06:14:06;;;;;;;12.63;10.40;;;;;;;9.66;97.20;62989.38;5053582;28;20205;-77
2023/04/20 06:16:35;;;;;;;15.52;11.02;;;;;;;9.73;97.80;63001.69;5069600;28;20232;-80
2023/04/20 06:19:02;;;;;;;12.18;10.63;;;;;;;9.66;98.23;62996.47;5068826;28;20202;-77
2023/04/20 06:21:29;;;;;;;14.38;10.27;;;;;;;9.67;98.97;62992.41;5049754;28;20209;-78
2023/04/20 06:23:56;;;;;;;13.18;11.18;;;;;;;9.72;98.83;62998.09;5051348;28;20210;-79
2023/04/20 06:26:23;;;;;;;14.57;10.40;;;;;;;9.81;100.00;63004.34;5049076;28;20244;-78
2023/04/20 06:28:51;;;;;;;13.65;9.73;;;;;;;9.93;99.27;63019.81;5049488;28;20198;-77
2023/04/20 06:31:19;;;;;;;15.07;12.10;;;;;;;9.83;100.00;63012.03;5048428;28;20198;-77
2023/04/20 06:33:47;;;;;;;13.00;10.60;;;;;;;9.78;98.44;63006.84;5065290;28;20233;-78
2023/04/20 06:36:14;;;;;;;12.38;11.07;;;;;;;9.77;99.29;63002.75;5053214;28;20234;-79
2023/04/20 06:38:41;;;;;;;17.80;11.75;;;;;;;9.87;98.14;63013.09;5055239;28;20523;-75
2023/04/20 06:41:08;;;;;;;13.98;11.52;;;;;;;9.86;97.37;63017.66;5053786;28;20266;-79
2023/04/20 06:43:35;;;;;;;15.52;10.85;;;;;;;9.93;96.08;63019.81;5048713;28;20229;-77
2023/04/20 06:46:01;;;;;;;13.18;10.55;;;;;;;9.86;95.78;63012.59;5045913;28;20233;-78
2023/04/20 06:48:28;;;;;;;13.73;10.55;;;;;;;9.81;95.32;63006.91;5063966;28;20225;-77
2023/04/20 06:50:57;;;;;;;12.43;9.93;;;;;;;9.82;95.17;63008.44;5068939;28;20224;-78
2023/04/20 06:53:24;;;;;;;14.57;11.25;;;;;;;9.78;96.08;63006.84;5069050;28;20235;-78
2023/04/20 06:55:50;;;;;;;11.43;10.07;;;;;;;9.82;95.34;63010.47;5065644;28;20204;-79
2023/04/20 06:58:17;;;;;;;11.40;9.80;;;;;;;9.87;95.97;63013.63;5068907;28;20421;-79
2023/04/20 07:00:44;;;;;;;16.58;10.30;;;;;;;9.87;95.02;63015.66;5067937;28;20197;-76
2023/04/20 07:03:11;;;;;;;15.43;11.73;;;;;;;9.92;95.92;63018.28;5068940;28;20556;-76
2023/04/20 07:05:38;;;;;;;13.27;11.27;;;;;;;9.59;99.74;62984.16;5065619;28;20206;-79
2023/04/20 07:08:08;;;;;;;10.05;9.05;;;;;;;9.51;98.68;62980.97;5066511;28;20216;-75
2023/04/20 07:10:35;;;;;;;12.93;10.70;;;;;;;9.47;99.98;62971.75;5067225;28;20204;-77
2023/04/20 07:13:02;;;;;;;13.18;10.20;;;;;;;9.70;99.91;62995.53;5067086;28;20267;-78
2023/04/20 07:15:28;;;;;;;10.13;9.13;;;;;;;9.80;98.35;63006.38;5048763;28;20208;-79
2023/04/20 07:17:55;;;;;;;12.65;9.85;;;;;;;9.80;100.00;63001.28;5047084;28;20238;-77
2023/04/20 07:20:22;;;;;;;11.32;10.10;;;;;;;9.95;100.00;63018.84;5045661;28;20201;-76
2023/04/20 07:22:49;;;;;;;10.82;9.15;;;;;;;10.06;99.25;63037.84;5049038;28;20240;-79
2023/04/20 07:25:17;;;;;;;8.77;7.90;;;;;;;10.21;93.31;63048.81;5058180;28;20210;-79
2023/04/20 07:27:44;;;;;;;11.73;9.10;;;;;;;10.24;92.97;63051.41;5046359;28;20256;-78
2023/04/20 07:30:11;;;;;;;9.68;8.60;;;;;;;10.38;93.27;63068.44;5047146;28;20236;-78
2023/04/20 07:32:40;;;;;;;12.07;8.90;;;;;;;10.41;91.39;63074.59;5054748;28;20221;-79
2023/04/20 07:35:07;;;;;;;10.30;9.18;;;;;;;10.67;89.92;63097.91;5066389;28;20227;-78
2023/04/20 07:37:35;;;;;;;10.85;8.60;;;;;;;10.86;87.42;63120.13;5056471;28;20526;-79
2023/04/20 07:40:04;;;;;;;10.18;8.57;;;;;;;10.99;85.44;63131.06;5052860;28;20511;-76
2023/04/20 07:42:35;;;;;;;14.20;9.55;;;;;;;11.10;85.23;63139.88;5055307;28;20229;-76
2023/04/20 07:45:02;;;;;;;12.43;8.80;;;;;;;11.34;82.30;63164.75;5053601;28;20198;-75
2023/04/20 07:47:29;;;;;;;9.80;8.73;;;;;;;11.57;81.00;63194.19;5051777;28;20232;-76
2023/04/20 07:49:57;;;;;;;10.77;9.02;;;;;;;11.72;78.66;63201.56;5051010;28;20197;-75
2023/04/20 07:52:24;;;;;;;12.13;9.20;;;;;;;11.81;77.74;63212.94;5052270;28;20228;-76
2023/04/20 07:54:52;;;;;;;11.48;9.07;;;;;;;11.61;75.92;63198.31;5061601;28;20209;-75
2023/04/20 07:57:19;;;;;;;9.77;8.68;;;;;;;11.72;77.37;63206.16;5056138;28;20229;-75
2023/04/20 07:59:48;;;;;;;11.50;9.07;;;;;;;11.52;76.23;63191.03;5056432;28;20230;-77
2023/04/20 08:02:16;;;;;;;7.90;7.18;;;;;;;11.40;76.56;63174.03;5061209;28;20457;-76
2023/04/20 08:04:43;;;;;;;9.00;8.10;;;;;;;11.59;77.19;63191.16;5055916;28;20202;-76
2023/04/20 08:07:10;;;;;;;8.43;7.53;;;;;;;11.62;76.54;63198.84;5053760;28;20228;-76
2023/04/20 08:09:37;;;;;;;10.05;8.32;;;;;;;11.56;75.08;63187.53;5061587;28;20402;-77
2023/04/20 08:12:05;;;;;;;13.07;8.85;;;;;;;11.58;75.24;63192.66;5051421;28;20221;-75
2023/04/20 08:14:32;;;;;;;11.13;8.40;;;;;;;11.65;74.55;63198.91;5060820;28;20259;-77
2023/04/20 08:17:00;;;;;;;16.00;7.60;;;;;;;11.70;73.76;63207.16;5055827;28;20407;-77
2023/04/20 08:19:27;;;;;;;9.85;8.35;;;;;;;11.84;74.12;63219.09;5054959;28;20373;-75
2023/04/20 08:21:54;;;;;;;8.77;7.57;;;;;;;11.75;74.60;63209.81;5061137;28;20266;-76
2023/04/20 08:24:21;;;;;;;8.43;7.45;;;;;;;11.63;73.57;63192.75;5058267;28;20209;-77
2023/04/20 08:26:48;;;;;;;10.82;8.43;;;;;;;11.86;72.55;63218.63;5064156;28;20225;-75
2023/04/20 08:29:15;;;;;;;9.93;7.80;;;;;;;11.95;72.36;63230.00;5055479;28;20557;-76
2023/04/20 08:31:42;;;;;;;9.18;8.05;;;;;;;11.83;74.17;63212.47;5057599;28;20194;-77
2023/04/20 08:34:11;;;;;;;9.88;8.85;;;;;;;11.95;74.01;63230.00;5053076;28;20197;-78
2023/04/20 08:36:38;;;;;;;8.95;8.15;;;;;;;12.22;72.03;63255.94;5050657;28;20198;-77
2023/04/20 08:39:08;;;;;;;9.63;8.63;;;;;;;12.18;72.88;63251.78;5057781;28;20227;-79
2023/04/20 08:41:35;;;;;;;13.98;9.07;;;;;;;12.11;72.81;63249.13;5064184;28;20201;-77
2023/04/20 08:44:02;;;;;;;8.20;7.40;;;;;;;12.27;72.17;63263.66;5063699;28;20198;-75
2023/04/20 08:46:29;;;;;;;10.98;9.30;;;;;;;11.92;73.86;63227.41;5063227;28;20205;-76
2023/04/20 08:48:56;;;;;;;12.02;9.13;;;;;;;11.75;76.53;63209.28;5060029;28;20198;-75
2023/04/20 08:51:25;;;;;;;14.75;9.68;;;;;;;11.95;75.93;63233.06;5059808;28;20228;-76
2023/04/20 08:53:52;;;;;;;9.55;8.30;;;;;;;11.79;77.23;63210.84;5055972;28;20223;-75
2023/04/20 08:56:19;;;;;;;14.05;9.27;;;;;;;11.93;75.38;63227.91;5058730;28;20198;-77
2023/04/20 08:58:46;;;;;;;9.77;8.55;;;;;;;12.14;74.42;63249.69;5055745;28;20225;-75
2023/04/20 09:01:13;;;;;;;9.70;8.43;;;;;;;12.31;72.95;63269.84;5061726;28;20268;-76
2023/04/20 09:03:42;;;;;;;10.48;9.38;;;;;;;12.40;72.94;63274.59;5060247;28;20472;-78
2023/04/20 09:06:15;;;;;;;9.38;8.38;;;;;;;12.17;74.21;63258.41;5053544;28;20255;-78
2023/04/20 09:08:44;;;;;;;8.90;7.93;;;;;;;12.04;73.81;63234.22;5053981;28;20267;-77
2023/04/20 09:11:21;;;;;;;10.85;8.65;;;;;;;12.19;74.39;63255.38;5059730;28;20393;-78
2023/04/20 09:13:57;;;;;;;8.70;7.90;;;;;;;11.77;75.82;63211.84;5054767;28;20235;-75
2023/04/20 09:16:24;;;;;;;10.80;8.60;;;;;;;11.80;76.05;63212.44;5053942;28;20197;-78
2023/04/20 09:18:53;;;;;;;11.68;9.30;;;;;;;11.81;76.34;63213.47;5052366;28;20229;-76
2023/04/20 09:21:19;;;;;;;9.35;8.48;;;;;;;11.94;76.82;63226.41;5054119;28;20247;-78
2023/04/20 09:23:57;;;;;;;10.35;8.35;;;;;;;12.05;75.50;63235.25;5056325;28;20247;-77
2023/04/20 09:26:24;;;;;;;9.55;8.60;;;;;;;11.95;75.92;63227.97;5055545;28;20219;-77
2023/04/20 09:28:51;;;;;;;9.98;8.98;;;;;;;12.15;76.25;63251.22;5058445;28;20205;-77
2023/04/20 09:31:18;;;;;;;11.07;8.48;;;;;;;12.48;73.22;63282.38;5059191;28;20263;-77
2023/04/20 09:33:45;;;;;;;9.85;8.35;;;;;;;12.67;71.08;63305.16;5050694;28;20273;-76
2023/04/20 09:36:12;;;;;;;12.85;9.02;;;;;;;12.86;70.33;63324.34;5059059;28;20261;-77
2023/04/20 09:38:39;;;;;;;9.45;8.55;;;;;;;12.88;69.78;63321.28;5053497;28;20226;-78
2023/04/20 09:41:08;;;;;;;9.43;8.30;;;;;;;13.10;67.57;63349.25;5061349;28;20214;-76
2023/04/20 09:43:36;;;;;;;11.40;9.40;;;;;;;13.00;68.36;63338.84;5054281;28;20218;-76
2023/04/20 09:46:04;;;;;;;7.70;7.00;;;;;;;13.01;66.57;63339.88;5055343;28;20536;-76
2023/04/20 09:48:30;;;;;;;8.40;7.60;;;;;;;13.08;66.93;63346.66;5053383;28;20276;-77
2023/04/20 09:50:58;;;;;;;11.52;9.00;;;;;;;13.29;67.24;63366.41;5062777;28;20231;-77
2023/04/20 09:53:25;;;;;;;9.65;6.75;;;;;;;13.20;65.06;63357.06;5062201;28;20350;-75
2023/04/20 09:55:52;;;;;;;8.98;7.43;;;;;;;13.00;65.59;63336.28;5060558;28;20215;-79
2023/04/20 09:58:21;;;;;;;9.75;7.88;;;;;;;13.27;65.70;63358.69;5062663;28;20228;-77
2023/04/20 10:00:48;;;;;;;7.32;6.53;;;;;;;12.90;66.24;63331.03;5061320;28;20205;-75
2023/04/20 10:03:17;;;;;;;7.60;6.97;;;;;;;12.35;70.36;63269.44;5062485;28;20263;-74
2023/04/20 10:05:44;;;;;;;10.18;7.95;;;;;;;12.54;68.96;63289.13;5063258;28;20239;-75
2023/04/20 10:08:11;;;;;;;10.13;9.02;;;;;;;12.37;71.76;63273.53;5062424;28;20324;-77
2023/04/20 10:10:45;;;;;;;8.85;7.90;;;;;;;13.09;68.31;63345.13;5061446;28;20202;-78
2023/04/20 10:13:13;;;;;;;8.32;7.50;;;;;;;13.82;63.39;63423.94;5062958;28;20424;-78
2023/04/20 10:15:42;;;;;;;9.48;8.52;;;;;;;13.87;62.95;63428.63;5058626;28;20185;-77
2023/04/20 10:18:17;;;;;;;11.27;7.88;;;;;;;13.86;62.42;63425.03;5057572;28;20256;-74
2023/04/20 10:20:44;;;;;;;8.80;7.93;;;;;;;13.32;64.64;63366.94;5055141;28;20220;-78
2023/04/20 10:23:13;;;;;;;7.88;7.13;;;;;;;13.77;62.58;63413.63;5056004;28;20278;-75
2023/04/20 10:25:41;;;;;;;10.30;8.35;;;;;;;13.35;66.04;63380.31;5056972;28;20198;-76
2023/04/20 10:28:09;;;;;;;8.98;8.13;;;;;;;13.81;62.97;63424.94;5062500;28;20439;-76
2023/04/20 10:30:37;;;;;;;7.60;6.90;;;;;;;13.67;63.29;63410.41;5052882;28;20194;-76
2023/04/20 10:33:08;;;;;;;8.30;6.50;;;;;;;13.18;64.87;63357.03;5051984;28;20217;-75
2023/04/20 10:35:48;;;;;;;8.20;7.40;;;;;;;13.07;66.34;63343.56;5059189;28;20190;-76
2023/04/20 10:38:15;;;;;;;6.95;6.32;;;;;;;13.06;65.36;63345.09;5048066;28;20237;-74
2023/04/20 10:40:42;;;;;;;8.38;7.47;;;;;;;13.00;65.39;63333.22;5054039;28;20210;-75
2023/04/20 10:43:20;;;;;;;9.85;7.05;;;;;;;13.30;65.50;63369.47;5049455;28;20227;-75
2023/04/20 10:45:47;;;;;;;11.10;6.60;;;;;;;13.22;65.38;63358.63;5053166;28;20197;-74
2023/04/20 10:48:16;;;;;;;7.20;6.60;;;;;;;13.59;62.45;63399.56;5059479;28;20216;-76
2023/04/20 10:50:43;;;;;;;6.47;5.93;;;;;;;13.63;60.39;63408.84;5057348;28;20271;-76
2023/04/20 10:53:21;;;;;;;7.32;6.55;;;;;;;13.03;63.44;63338.91;5054722;28;20229;-75
2023/04/20 10:55:57;;;;;;;7.45;6.75;;;;;;;13.49;63.15;63392.28;5054497;28;20211;-76
2023/04/20 10:58:25;;;;;;;6.20;5.70;;;;;;;13.63;60.98;63403.72;5056062;28;20233;-74
2023/04/20 11:00:59;;;;;;;7.32;6.65;;;;;;;13.30;63.84;63372.56;5053790;28;20220;-75
2023/04/20 11:03:30;;;;;;;10.23;6.63;;;;;;;13.57;62.65;63397.50;5057013;28;20224;-75
2023/04/20 11:06:00;;;;;;;6.82;6.22;;;;;;;13.15;62.40;63353.91;5056830;28;20389;-74
2023/04/20 11:08:37;;;;;;;7.65;6.85;;;;;;;13.19;62.92;63355.50;5057344;28;20217;-75
2023/04/20 11:11:05;;;;;;;7.15;6.50;;;;;;;13.43;64.45;63378.38;5059171;28;20213;-76
2023/04/20 11:13:32;;;;;;;6.63;6.05;;;;;;;13.77;61.23;63415.69;5058120;28;20275;-75
2023/04/20 11:15:59;;;;;;;8.80;7.78;;;;;;;14.08;62.64;63452.47;5056079;28;20204;-77
2023/04/20 11:18:26;;;;;;;7.75;5.97;;;;;;;13.63;63.54;63401.66;5058304;28;20237;-74
2023/04/20 11:20:55;;;;;;;7.35;6.57;;;;;;;13.06;61.99;63347.66;5055213;28;20213;-75
2023/04/20 11:23:24;;;;;;;5.60;5.22;;;;;;;13.34;59.74;63376.19;5058353;28;20296;-76
2023/04/20 11:25:56;;;;;;;5.60;5.10;;;;;;;14.11;58.54;63450.97;5058125;28;20256;-76
2023/04/20 11:28:29;;;;;;;6.38;5.88;;;;;;;14.35;57.55;63481.03;5057795;28;20568;-75
2023/04/20 11:30:56;;;;;;;5.88;5.38;;;;;;;14.95;56.38;63540.81;5053770;28;20201;-76
2023/04/20 11:33:27;;;;;;;5.65;5.15;;;;;;;14.57;55.96;63498.25;5058615;28;20224;-74